Time;durP1;ratioP1;P1;durP2;ratioP2;P2;SDS_P1;SDS_P2;PMS_P1;PMS_P2;Temp;Humidity;BMP_temperature;BMP_pressure;BME280_temperature;BME280_humidity;BME280_pressure;Samples;Min_cycle;Max_cycle;Signal;HPM_P1;HPM_P2
2022/01/04 00:00:46;;;;;;;1.53;1.43;;;12.20;99.90;;;;;;10440352;28;20213;-84
2022/01/04 00:05:48;;;;;;;1.20;1.13;;;12.20;99.90;;;;;;10410306;28;20277;-84
2022/01/04 00:10:54;;;;;;;1.60;1.50;;;12.20;99.90;;;;;;10424892;28;20289;-84
2022/01/04 00:15:57;;;;;;;1.43;1.33;;;12.10;99.90;;;;;;10402626;28;20218;-84
2022/01/04 00:20:59;;;;;;;1.70;1.60;;;12.10;99.90;;;;;;10405674;28;20200;-84
2022/01/04 00:26:03;;;;;;;2.23;1.80;;;12.10;99.90;;;;;;10421063;28;20241;-83
2022/01/04 00:31:05;;;;;;;2.20;1.60;;;12.10;99.90;;;;;;10414979;28;20610;-84
2022/01/04 00:36:07;;;;;;;1.73;1.30;;;12.10;99.90;;;;;;10441217;28;20212;-83
2022/01/04 00:41:11;;;;;;;3.50;1.60;;;12.00;99.90;;;;;;10419287;28;20579;-84
2022/01/04 00:46:16;;;;;;;1.50;1.23;;;12.10;99.90;;;;;;10427792;28;20752;-83
2022/01/04 00:51:19;;;;;;;2.50;1.30;;;12.10;99.90;;;;;;10412439;28;20201;-83
2022/01/04 00:56:22;;;;;;;1.80;1.70;;;12.10;99.90;;;;;;10566490;23;20710;-79
2022/01/04 01:01:25;;;;;;;1.67;1.57;;;12.20;99.90;;;;;;10524221;28;20200;-79
2022/01/04 01:06:27;;;;;;;2.63;2.17;;;12.20;99.90;;;;;;10526570;28;20730;-77
2022/01/04 01:11:30;;;;;;;1.60;1.40;;;12.20;99.90;;;;;;10515673;28;20196;-79
2022/01/04 01:16:33;;;;;;;1.50;1.40;;;12.20;99.90;;;;;;10493882;28;20648;-80
2022/01/04 01:21:35;;;;;;;1.57;1.40;;;12.10;99.90;;;;;;10521327;28;20279;-78
2022/01/04 01:26:38;;;;;;;1.97;1.80;;;12.20;99.90;;;;;;10493102;28;20231;-81
2022/01/04 01:31:40;;;;;;;1.70;1.60;;;12.10;99.90;;;;;;10507674;28;20687;-80
2022/01/04 01:36:42;;;;;;;1.70;1.60;;;12.10;99.90;;;;;;10511419;28;20188;-80
2022/01/04 01:41:46;;;;;;;1.80;1.70;;;12.10;99.90;;;;;;10512996;28;20208;-79
2022/01/04 01:46:48;;;;;;;1.97;1.87;;;12.00;99.90;;;;;;10519902;28;20310;-78
2022/01/04 01:51:51;;;;;;;2.53;1.70;;;12.00;99.90;;;;;;10528789;28;20225;-79
2022/01/04 01:56:54;;;;;;;1.87;1.70;;;12.00;99.90;;;;;;10529403;28;20211;-78
2022/01/04 02:01:57;;;;;;;1.93;1.83;;;12.00;99.90;;;;;;10524139;28;20667;-78
2022/01/04 02:07:01;;;;;;;2.80;1.93;;;11.90;99.90;;;;;;10513008;28;20216;-79
2022/01/04 02:12:06;;;;;;;1.73;1.63;;;11.90;99.90;;;;;;10506153;28;20669;-78
2022/01/04 02:17:08;;;;;;;2.13;2.03;;;11.90;99.90;;;;;;10525253;28;20283;-76
2022/01/04 02:22:12;;;;;;;2.10;2.00;;;11.90;99.90;;;;;;10537403;28;20691;-78
2022/01/04 02:27:15;;;;;;;2.10;1.70;;;11.90;99.90;;;;;;10538187;28;20215;-81
2022/01/04 02:32:18;;;;;;;2.50;2.20;;;11.90;99.90;;;;;;10542566;28;20587;-81
2022/01/04 02:37:22;;;;;;;1.97;1.87;;;11.90;99.90;;;;;;10525868;28;20203;-81
2022/01/04 02:42:24;;;;;;;2.20;2.10;;;11.90;99.90;;;;;;10527907;28;20240;-80
2022/01/04 02:47:28;;;;;;;2.10;2.00;;;12.00;99.90;;;;;;10547720;28;20220;-81
2022/01/04 02:52:32;;;;;;;2.37;2.17;;;12.00;99.90;;;;;;10553861;28;20230;-79
2022/01/04 02:57:35;;;;;;;2.17;2.07;;;12.00;99.90;;;;;;10544557;28;20283;-79
2022/01/04 03:02:37;;;;;;;2.17;2.07;;;12.00;99.90;;;;;;10520297;28;20233;-79
2022/01/04 03:07:41;;;;;;;2.30;2.10;;;12.00;99.90;;;;;;10502456;28;20220;-81
2022/01/04 03:12:44;;;;;;;2.23;2.10;;;12.10;99.90;;;;;;10504170;28;20307;-80
2022/01/04 03:17:46;;;;;;;2.63;2.50;;;12.10;99.90;;;;;;10523196;28;20191;-79
2022/01/04 03:22:49;;;;;;;2.37;2.17;;;12.00;99.90;;;;;;10515899;28;20219;-80
2022/01/04 03:27:52;;;;;;;2.60;2.40;;;12.00;99.90;;;;;;10535731;28;20410;-80
2022/01/04 03:32:54;;;;;;;2.40;2.20;;;11.90;99.90;;;;;;10536997;28;20254;-79
2022/01/04 03:37:58;;;;;;;2.87;2.47;;;11.80;99.90;;;;;;10538498;28;20196;-79
2022/01/04 03:43:00;;;;;;;3.70;2.33;;;11.70;99.90;;;;;;10539194;28;20280;-79
2022/01/04 03:48:02;;;;;;;2.50;2.40;;;11.70;99.90;;;;;;10539408;28;20306;-80
2022/01/04 03:53:05;;;;;;;2.20;2.10;;;11.70;99.90;;;;;;10515082;28;20227;-79
2022/01/04 03:58:09;;;;;;;2.30;1.90;;;11.60;99.90;;;;;;10534175;28;20655;-79
2022/01/04 04:03:11;;;;;;;2.27;2.17;;;11.60;99.90;;;;;;10517674;28;20315;-77
2022/01/04 04:08:14;;;;;;;2.47;2.37;;;11.60;99.90;;;;;;10525609;28;20216;-78
2022/01/04 04:13:16;;;;;;;2.73;2.57;;;11.60;99.90;;;;;;10501066;28;20251;-79
2022/01/04 04:18:19;;;;;;;2.53;2.43;;;11.60;99.90;;;;;;10518569;28;20192;-77
2022/01/04 04:23:22;;;;;;;2.30;2.20;;;11.60;99.90;;;;;;10520419;28;20233;-78
2022/01/04 04:28:24;;;;;;;2.40;2.30;;;11.70;99.90;;;;;;10514373;28;20226;-78
2022/01/04 04:33:26;;;;;;;2.60;2.50;;;11.70;99.90;;;;;;10515398;28;20766;-77
2022/01/04 04:38:30;;;;;;;3.07;2.70;;;11.70;99.90;;;;;;10513019;28;20197;-78
2022/01/04 04:43:32;;;;;;;3.00;2.80;;;11.70;99.90;;;;;;10502625;28;20255;-78
2022/01/04 04:48:34;;;;;;;3.20;3.00;;;11.70;99.90;;;;;;10511450;28;20223;-76
2022/01/04 04:53:37;;;;;;;3.00;2.80;;;11.60;99.90;;;;;;10511963;28;20223;-78
2022/01/04 04:58:40;;;;;;;2.53;2.43;;;11.60;99.90;;;;;;10510100;28;20196;-78
2022/01/04 05:03:42;;;;;;;4.00;3.80;;;11.60;99.90;;;;;;10493948;28;20220;-77
2022/01/04 05:08:45;;;;;;;3.60;3.40;;;11.60;99.90;;;;;;10530877;28;20216;-78
2022/01/04 05:13:47;;;;;;;3.30;3.10;;;11.60;99.90;;;;;;10529325;28;20676;-79
2022/01/04 05:18:49;;;;;;;3.40;3.20;;;11.50;99.90;;;;;;10529677;28;20199;-79
2022/01/04 05:23:54;;;;;;;3.50;3.30;;;11.50;99.90;;;;;;10539208;28;20227;-77
2022/01/04 05:28:56;;;;;;;4.00;3.63;;;11.50;99.90;;;;;;10522809;28;20306;-79
2022/01/04 05:33:58;;;;;;;4.67;4.30;;;11.50;99.90;;;;;;10506054;28;20231;-79
2022/01/04 05:39:02;;;;;;;6.27;5.67;;;11.50;99.90;;;;;;10536892;28;20196;-78
2022/01/04 05:44:04;;;;;;;4.40;4.13;;;11.50;99.90;;;;;;10524754;28;20303;-80
2022/01/04 05:49:06;;;;;;;5.03;4.83;;;11.50;99.90;;;;;;10519886;28;20255;-77
2022/01/04 05:54:10;;;;;;;5.60;5.40;;;11.40;99.90;;;;;;10525460;28;20231;-80
2022/01/04 05:59:12;;;;;;;5.53;5.30;;;11.30;99.90;;;;;;10510222;28;20855;-81
2022/01/04 06:04:14;;;;;;;6.60;6.20;;;11.30;99.90;;;;;;10515259;28;20220;-82
2022/01/04 06:09:22;;;;;;;4.80;4.50;;;11.30;99.90;;;;;;10513809;28;20230;-82
2022/01/04 06:19:44;;;;;;;5.20;4.90;;;11.30;99.90;;;;;;10525614;28;20290;-82
2022/01/04 06:24:47;;;;;;;4.37;4.17;;;11.30;99.90;;;;;;10516065;28;20224;-81
2022/01/04 06:29:50;;;;;;;6.03;5.83;;;11.30;99.90;;;;;;10490477;28;20600;-80
2022/01/04 06:34:52;;;;;;;5.27;5.07;;;11.30;99.90;;;;;;10529565;28;20243;-80
2022/01/04 06:39:56;;;;;;;5.00;4.80;;;11.30;99.90;;;;;;10534407;28;20223;-80
2022/01/04 06:44:58;;;;;;;4.53;4.33;;;11.30;99.90;;;;;;10553453;28;20216;-80
2022/01/04 06:50:01;;;;;;;4.63;4.43;;;11.40;99.90;;;;;;10520379;28;20247;-79
2022/01/04 06:55:05;;;;;;;4.83;4.60;;;11.40;99.90;;;;;;10548271;28;20227;-79
2022/01/04 07:00:09;;;;;;;4.80;4.60;;;11.40;99.90;;;;;;10515875;28;20210;-79
2022/01/04 07:05:11;;;;;;;4.70;4.30;;;11.50;99.90;;;;;;10512219;28;20220;-78
2022/01/04 07:10:14;;;;;;;3.20;3.00;;;11.50;99.90;;;;;;10518174;28;20250;-78
2022/01/04 07:15:16;;;;;;;3.90;3.80;;;11.50;99.90;;;;;;10538180;28;20228;-78
2022/01/04 07:20:18;;;;;;;4.57;4.37;;;11.50;99.90;;;;;;10539228;28;20674;-78
2022/01/04 07:25:24;;;;;;;3.97;3.70;;;11.50;99.90;;;;;;10520128;28;20307;-78
2022/01/04 07:30:26;;;;;;;5.00;4.70;;;11.50;99.90;;;;;;10509519;28;20261;-77
2022/01/04 07:35:28;;;;;;;4.70;4.50;;;11.60;99.90;;;;;;10536529;28;20688;-78
2022/01/04 07:40:32;;;;;;;4.63;4.47;;;11.50;99.90;;;;;;10539173;28;20200;-78
2022/01/04 07:45:35;;;;;;;4.23;4.07;;;11.60;99.90;;;;;;10506030;28;20224;-79
2022/01/04 07:50:38;;;;;;;5.07;4.83;;;11.60;99.90;;;;;;10517932;28;20594;-79
2022/01/04 07:55:41;;;;;;;4.57;4.30;;;11.60;99.90;;;;;;10529622;28;20231;-79
2022/01/04 08:00:44;;;;;;;4.10;3.90;;;11.70;99.90;;;;;;10537310;28;20219;-79
2022/01/04 08:05:46;;;;;;;4.23;4.03;;;11.70;99.90;;;;;;10537184;28;20219;-78
2022/01/04 08:10:51;;;;;;;3.57;3.37;;;11.80;99.90;;;;;;10531814;28;20580;-78
2022/01/04 08:15:53;;;;;;;5.13;4.80;;;11.90;99.90;;;;;;10535539;28;20687;-81
2022/01/04 08:20:57;;;;;;;4.00;3.83;;;11.90;99.90;;;;;;10535636;28;20196;-81
2022/01/04 08:26:01;;;;;;;3.43;3.33;;;12.00;99.90;;;;;;10534897;28;20584;-79
2022/01/04 08:31:03;;;;;;;4.60;4.20;;;12.10;99.90;;;;;;10510046;28;20331;-78
2022/01/04 08:36:07;;;;;;;4.00;3.80;;;12.10;99.90;;;;;;10535502;28;20302;-79
2022/01/04 08:41:11;;;;;;;4.33;4.13;;;12.10;99.90;;;;;;10523063;28;20218;-78
2022/01/04 08:46:13;;;;;;;5.40;5.00;;;12.20;99.90;;;;;;10529880;28;20230;-79
2022/01/04 08:51:15;;;;;;;4.13;4.03;;;12.30;99.90;;;;;;10534613;28;20223;-78
2022/01/04 08:56:19;;;;;;;3.90;3.70;;;12.30;99.90;;;;;;10520500;28;20220;-78
2022/01/04 09:01:21;;;;;;;4.27;4.07;;;12.30;99.90;;;;;;10530857;28;20195;-78
2022/01/04 09:06:23;;;;;;;3.63;3.30;;;12.40;99.90;;;;;;10510849;28;20246;-78
2022/01/04 09:11:27;;;;;;;3.40;3.20;;;12.40;99.90;;;;;;10529327;28;20221;-78
2022/01/04 09:21:49;;;;;;;3.60;3.10;;;12.50;99.90;;;;;;10523386;28;20195;-78
2022/01/04 09:26:53;;;;;;;3.80;2.50;;;12.60;99.90;;;;;;10540281;28;20249;-77
2022/01/04 09:31:55;;;;;;;2.90;2.60;;;12.60;99.90;;;;;;10537551;28;20286;-78
2022/01/04 09:36:57;;;;;;;2.60;2.40;;;12.60;99.90;;;;;;10527489;28;20200;-78
2022/01/04 09:42:01;;;;;;;3.30;3.10;;;12.60;99.90;;;;;;10541429;28;20226;-79
2022/01/04 09:47:05;;;;;;;3.23;2.50;;;12.60;99.90;;;;;;10538508;28;20212;-78
2022/01/04 09:52:09;;;;;;;3.70;2.90;;;12.60;99.90;;;;;;10518770;28;20232;-79
2022/01/04 09:57:15;;;;;;;2.83;2.73;;;12.60;99.90;;;;;;10515968;28;20283;-78
2022/01/04 10:02:19;;;;;;;3.37;3.07;;;12.60;99.90;;;;;;10536770;28;20304;-79
2022/01/04 10:07:22;;;;;;;3.57;3.37;;;12.50;99.90;;;;;;10517038;28;20219;-79
2022/01/04 10:12:26;;;;;;;3.67;3.37;;;12.50;99.90;;;;;;10535388;28;20277;-79
2022/01/04 10:17:31;;;;;;;3.23;3.13;;;12.60;99.90;;;;;;10536799;28;20293;-79
2022/01/04 10:22:35;;;;;;;2.20;2.10;;;12.60;99.90;;;;;;10541602;28;20748;-78
2022/01/04 10:27:41;;;;;;;2.40;2.30;;;12.60;99.90;;;;;;10545624;28;20212;-79
2022/01/04 10:32:51;;;;;;;4.00;3.60;;;12.60;99.90;;;;;;10541264;28;20242;-78
2022/01/04 10:37:55;;;;;;;3.13;2.93;;;12.70;99.90;;;;;;10497833;28;20200;-79
2022/01/04 10:43:09;;;;;;;2.47;2.10;;;12.70;99.90;;;;;;10541921;28;20219;-79
2022/01/04 10:48:17;;;;;;;3.07;2.43;;;12.80;99.90;;;;;;10539467;28;20303;-79
2022/01/04 10:53:23;;;;;;;3.03;2.70;;;12.80;99.90;;;;;;10533298;28;20219;-78
2022/01/04 10:58:31;;;;;;;3.10;2.90;;;12.90;99.90;;;;;;10538993;28;20454;-78
2022/01/04 11:03:35;;;;;;;2.30;2.20;;;12.90;99.90;;;;;;10520825;28;20215;-78
2022/01/04 11:08:38;;;;;;;2.37;2.27;;;12.90;99.90;;;;;;10533246;28;20230;-78
2022/01/04 11:13:42;;;;;;;2.60;2.40;;;12.90;99.90;;;;;;10539469;28;20683;-80
2022/01/04 11:18:49;;;;;;;2.20;2.10;;;13.00;99.90;;;;;;10526596;28;20569;-81
2022/01/04 11:23:52;;;;;;;2.50;2.30;;;13.00;99.90;;;;;;10508152;28;20786;-80
2022/01/04 11:28:59;;;;;;;1.50;1.40;;;13.10;99.90;;;;;;10512489;28;20635;-81
2022/01/04 11:34:16;;;;;;;2.13;2.03;;;13.10;99.90;;;;;;10508086;28;20642;-79
2022/01/04 11:39:29;;;;;;;4.00;1.80;;;13.10;99.90;;;;;;10518890;28;20202;-80
2022/01/04 11:44:33;;;;;;;2.70;2.50;;;13.10;99.90;;;;;;10502248;28;20565;-80
2022/01/04 11:49:37;;;;;;;2.20;2.10;;;13.00;99.90;;;;;;10493733;28;20304;-79
2022/01/04 11:54:39;;;;;;;3.43;1.87;;;13.00;99.90;;;;;;10518945;28;20727;-81
2022/01/04 11:59:45;;;;;;;2.30;2.20;;;13.00;99.90;;;;;;10505092;28;20200;-80
2022/01/04 12:04:52;;;;;;;2.50;2.30;;;13.00;99.90;;;;;;10514556;28;20247;-81
2022/01/04 12:10:34;;;;;;;3.30;2.37;;;12.90;99.90;;;;;;10490194;28;20266;-79
2022/01/04 12:15:57;;;;;;;2.83;2.63;;;12.90;99.90;;;;;;10509939;28;20212;-79
2022/01/04 12:21:01;;;;;;;2.80;2.60;;;12.90;99.90;;;;;;10491524;28;20188;-80
2022/01/04 12:26:24;;;;;;;3.07;2.70;;;12.90;99.90;;;;;;10489840;28;20601;-81
2022/01/04 12:31:28;;;;;;;2.70;2.50;;;13.00;99.90;;;;;;10490899;28;20218;-79
2022/01/04 12:36:33;;;;;;;2.70;2.50;;;12.90;99.90;;;;;;10507317;28;20721;-80
2022/01/04 12:41:36;;;;;;;3.03;2.83;;;12.90;99.90;;;;;;10492643;28;20188;-78
2022/01/04 12:46:41;;;;;;;2.43;2.23;;;12.90;99.90;;;;;;10478706;28;20224;-78
2022/01/04 12:51:47;;;;;;;2.67;2.47;;;12.90;99.90;;;;;;10522048;28;20681;-78
2022/01/04 12:56:51;;;;;;;2.63;2.27;;;12.90;99.90;;;;;;10461343;23;20240;-83
2022/01/04 13:01:56;;;;;;;4.30;2.80;;;12.90;99.90;;;;;;10477154;28;20196;-84
2022/01/04 13:06:58;;;;;;;2.43;2.23;;;12.90;99.90;;;;;;10461588;28;20224;-82
2022/01/04 13:12:01;;;;;;;3.00;2.70;;;12.80;99.90;;;;;;10494429;28;20678;-83
2022/01/04 13:17:08;;;;;;;3.23;3.03;;;12.80;99.90;;;;;;10470294;28;20248;-83
2022/01/04 13:22:13;;;;;;;3.97;3.67;;;12.80;99.90;;;;;;10461482;28;20656;-85
2022/01/04 13:27:32;;;;;;;2.90;2.60;;;12.80;99.90;;;;;;10469111;28;20304;-84
2022/01/04 13:32:37;;;;;;;4.60;3.40;;;12.70;99.90;;;;;;10487252;28;20243;-84
2022/01/04 13:37:40;;;;;;;4.00;3.60;;;12.60;99.90;;;;;;10475999;28;20200;-82
2022/01/04 13:42:44;;;;;;;3.90;3.60;;;12.60;99.90;;;;;;10493724;28;20217;-84
2022/01/04 13:47:51;;;;;;;4.77;4.37;;;12.60;99.90;;;;;;10487585;28;20238;-85
2022/01/04 13:53:03;;;;;;;4.47;4.17;;;12.60;99.90;;;;;;10478989;28;20239;-83
2022/01/04 13:58:09;;;;;;;4.60;4.30;;;12.60;99.90;;;;;;10507575;28;20628;-83
2022/01/04 14:03:34;;;;;;;5.57;4.40;;;12.50;99.90;;;;;;10510679;28;20244;-83
2022/01/04 14:08:49;;;;;;;3.77;3.37;;;12.50;99.90;;;;;;10484620;28;20311;-83
2022/01/04 14:13:51;;;;;;;3.73;3.27;;;12.60;99.90;;;;;;10481245;28;20304;-82
2022/01/04 14:19:09;;;;;;;2.33;2.13;;;12.40;99.90;;;;;;10487226;28;20193;-82
2022/01/04 14:24:34;;;;;;;4.60;3.30;;;12.00;99.90;;;;;;10459200;28;20216;-83
2022/01/04 14:29:39;;;;;;;3.17;3.07;;;11.60;99.90;;;;;;10487569;28;20213;-83
2022/01/04 14:34:42;;;;;;;4.37;4.27;;;11.20;99.90;;;;;;10467398;28;20220;-83
2022/01/04 14:39:45;;;;;;;4.30;4.10;;;10.90;99.90;;;;;;10468617;28;20257;-83
2022/01/04 14:44:48;;;;;;;4.10;3.90;;;10.80;99.90;;;;;;10500074;28;20652;-83
2022/01/04 14:49:52;;;;;;;3.23;3.13;;;10.60;99.90;;;;;;10492693;28;20217;-82
2022/01/04 14:54:56;;;;;;;4.47;4.27;;;10.40;99.90;;;;;;10500458;28;20225;-83
2022/01/04 14:59:59;;;;;;;3.50;3.30;;;10.30;99.90;;;;;;10485083;28;20206;-83
2022/01/04 15:05:03;;;;;;;4.10;3.90;;;10.20;99.90;;;;;;10445412;28;20290;-84
2022/01/04 15:10:07;;;;;;;3.70;3.50;;;10.10;99.90;;;;;;10460881;28;20350;-84
2022/01/04 15:15:09;;;;;;;3.93;3.83;;;10.10;99.90;;;;;;10490253;28;20209;-82
2022/01/04 15:20:13;;;;;;;3.67;3.57;;;10.00;99.90;;;;;;10484002;28;20220;-83
2022/01/04 15:25:23;;;;;;;3.40;3.30;;;10.00;99.90;;;;;;10486290;28;20216;-83
2022/01/04 15:30:26;;;;;;;3.37;2.80;;;9.90;99.90;;;;;;10497748;28;20251;-83
2022/01/04 15:35:31;;;;;;;2.30;2.20;;;9.80;99.90;;;;;;10484988;28;20217;-83
2022/01/04 15:40:33;;;;;;;1.83;1.73;;;9.70;99.90;;;;;;10462075;28;20192;-84
2022/01/04 15:45:36;;;;;;;1.83;1.73;;;9.60;99.90;;;;;;10481132;28;20216;-83
2022/01/04 15:50:39;;;;;;;1.40;1.40;;;9.50;99.90;;;;;;10480155;28;20312;-84
2022/01/04 15:55:41;;;;;;;2.47;2.37;;;9.40;99.90;;;;;;10511336;28;20704;-84
2022/01/04 16:00:44;;;;;;;2.30;1.77;;;9.30;99.90;;;;;;10467573;28;20203;-84
2022/01/04 16:05:47;;;;;;;2.20;2.10;;;9.30;99.90;;;;;;10481180;28;20224;-82
2022/01/04 16:10:49;;;;;;;3.30;3.17;;;9.20;99.90;;;;;;10455071;28;20224;-83
2022/01/04 16:15:57;;;;;;;2.70;2.50;;;9.30;99.90;;;;;;10465286;28;20231;-82
2022/01/04 16:26:34;;;;;;;2.20;2.10;;;9.20;99.90;;;;;;10503209;28;20262;-82
2022/01/04 16:31:37;;;;;;;3.60;3.43;;;9.20;99.90;;;;;;10485739;28;20679;-83
2022/01/04 16:36:42;;;;;;;3.67;3.57;;;9.20;99.90;;;;;;10508085;28;20282;-82
2022/01/04 16:41:45;;;;;;;3.37;3.17;;;9.20;99.90;;;;;;10474314;28;20225;-82
2022/01/04 16:46:48;;;;;;;3.27;3.17;;;9.20;99.90;;;;;;10469360;28;20772;-82
2022/01/04 16:51:53;;;;;;;3.33;3.13;;;9.20;99.90;;;;;;10477904;28;20243;-82
2022/01/04 16:56:55;;;;;;;2.93;2.83;;;9.10;99.90;;;;;;10479561;28;20232;-81
2022/01/04 17:01:57;;;;;;;3.00;2.80;;;9.10;99.90;;;;;;10453444;28;20197;-82
2022/01/04 17:07:01;;;;;;;2.80;2.70;;;9.10;99.90;;;;;;10483615;28;20274;-82
2022/01/04 17:12:32;;;;;;;3.73;3.53;;;9.10;99.90;;;;;;10459638;28;20308;-83
2022/01/04 17:17:33;;;;;;;4.30;4.10;;;9.10;99.90;;;;;;10485123;28;20659;-82
2022/01/04 17:22:37;;;;;;;3.87;3.60;;;9.00;99.90;;;;;;10504424;28;20232;-82
2022/01/04 17:27:40;;;;;;;3.60;3.40;;;9.00;99.90;;;;;;10470131;28;20235;-83
2022/01/04 17:32:42;;;;;;;3.70;3.53;;;9.00;99.90;;;;;;10486023;28;20229;-83
2022/01/04 17:37:45;;;;;;;4.40;4.10;;;8.90;99.90;;;;;;10486254;28;20485;-83
2022/01/04 17:42:47;;;;;;;4.67;4.47;;;8.90;99.90;;;;;;10477742;28;20244;-84
2022/01/04 17:47:52;;;;;;;5.93;4.50;;;9.00;99.90;;;;;;10472038;28;20224;-83
2022/01/04 17:52:55;;;;;;;3.40;3.20;;;8.90;99.90;;;;;;10494375;28;20232;-82
2022/01/04 17:57:59;;;;;;;4.47;4.17;;;8.90;99.90;;;;;;10484263;28;20212;-82
2022/01/04 18:03:01;;;;;;;3.03;2.83;;;8.90;99.90;;;;;;10485460;28;20379;-82
2022/01/04 18:08:06;;;;;;;3.67;3.37;;;8.80;99.90;;;;;;10480948;28;20204;-82
2022/01/04 18:13:08;;;;;;;3.47;3.27;;;8.80;99.90;;;;;;10489713;28;20223;-82
2022/01/04 18:18:11;;;;;;;3.60;3.40;;;8.70;99.90;;;;;;10500478;28;20205;-80
2022/01/04 18:23:14;;;;;;;2.47;2.27;;;8.70;99.90;;;;;;11213924;22;20263;-81
2022/01/04 18:28:18;;;;;;;2.57;2.47;;;8.60;99.90;;;;;;10444735;28;20229;-82
2022/01/04 18:33:20;;;;;;;3.13;3.03;;;8.60;99.90;;;;;;10447505;28;20283;-82
2022/01/04 18:38:24;;;;;;;2.77;2.67;;;8.50;99.90;;;;;;10456556;23;20699;-77
2022/01/04 18:43:26;;;;;;;4.93;2.70;;;8.50;99.90;;;;;;10498505;28;20218;-80
2022/01/04 18:48:29;;;;;;;2.17;2.07;;;8.40;99.90;;;;;;10475922;28;20224;-79
2022/01/04 18:53:32;;;;;;;3.43;3.10;;;8.30;99.90;;;;;;10504301;28;20216;-79
2022/01/04 18:58:34;;;;;;;2.10;1.93;;;8.30;99.90;;;;;;10487089;28;20212;-78
2022/01/04 19:03:36;;;;;;;1.77;1.77;;;8.30;99.90;;;;;;10504686;28;20644;-79
2022/01/04 19:08:41;;;;;;;2.10;2.00;;;8.20;99.90;;;;;;10477387;28;20566;-78
2022/01/04 19:13:43;;;;;;;3.40;3.30;;;8.10;99.90;;;;;;10448823;28;20208;-78
2022/01/04 19:18:45;;;;;;;2.00;1.90;;;8.10;99.90;;;;;;10483544;28;20218;-79
2022/01/04 19:23:50;;;;;;;2.23;2.00;;;8.00;99.90;;;;;;10476970;28;20229;-79
2022/01/04 19:28:52;;;;;;;3.50;3.40;;;8.00;99.90;;;;;;10470248;28;20320;-80
2022/01/04 19:39:16;;;;;;;2.43;2.33;;;7.90;99.90;;;;;;10464665;28;20243;-81
2022/01/04 19:44:18;;;;;;;2.57;2.47;;;7.90;99.90;;;;;;10502597;28;20192;-80
2022/01/04 19:49:20;;;;;;;3.57;3.47;;;7.90;99.90;;;;;;10489447;28;20216;-80
2022/01/04 19:54:24;;;;;;;2.37;2.27;;;7.80;99.90;;;;;;10478453;28;20196;-81
2022/01/04 19:59:26;;;;;;;2.90;2.80;;;7.90;99.90;;;;;;10478845;28;20224;-81
2022/01/04 20:04:29;;;;;;;4.23;3.93;;;7.80;99.90;;;;;;10455699;28;20230;-81
2022/01/04 20:09:32;;;;;;;3.20;3.00;;;7.80;99.90;;;;;;10500275;28;20223;-81
2022/01/04 20:14:34;;;;;;;3.90;3.70;;;7.80;99.90;;;;;;10485494;28;20661;-80
2022/01/04 20:19:36;;;;;;;4.90;4.50;;;7.60;99.90;;;;;;10448833;28;20228;-81
2022/01/04 20:24:40;;;;;;;3.67;3.47;;;7.60;99.90;;;;;;10467765;28;20554;-82
2022/01/04 20:29:44;;;;;;;3.97;3.77;;;7.40;99.90;;;;;;10476634;28;20224;-82
2022/01/04 20:34:46;;;;;;;4.50;4.20;;;7.40;99.90;;;;;;10479524;28;20201;-82
2022/01/04 20:39:50;;;;;;;3.33;3.13;;;7.30;99.90;;;;;;10480292;28;20303;-81
2022/01/04 20:44:52;;;;;;;3.60;3.50;;;7.40;99.90;;;;;;10472182;28;20691;-82
2022/01/04 20:49:54;;;;;;;3.90;3.67;;;7.40;99.90;;;;;;10487811;28;20247;-82
2022/01/04 20:54:58;;;;;;;3.80;3.60;;;7.40;99.90;;;;;;10466589;28;20300;-80
2022/01/04 21:00:00;;;;;;;4.07;3.87;;;7.30;99.90;;;;;;10448852;28;20272;-80
2022/01/04 21:05:02;;;;;;;4.30;4.10;;;7.40;99.90;;;;;;10449810;28;20265;-81
2022/01/04 21:10:07;;;;;;;4.07;3.77;;;7.40;99.90;;;;;;10489683;28;20208;-81
2022/01/04 21:15:10;;;;;;;3.90;3.70;;;7.40;99.90;;;;;;10445147;28;20200;-81
2022/01/04 21:20:13;;;;;;;3.40;3.30;;;7.50;99.90;;;;;;10473087;28;20228;-82
2022/01/04 21:25:16;;;;;;;2.70;2.60;;;7.40;99.90;;;;;;10475117;28;20247;-81
2022/01/04 21:30:18;;;;;;;3.10;3.00;;;7.40;99.90;;;;;;10460784;28;20312;-82
2022/01/04 21:35:21;;;;;;;3.30;3.13;;;7.40;99.90;;;;;;10462349;28;20696;-80
2022/01/04 21:40:27;;;;;;;2.30;2.20;;;7.40;99.90;;;;;;10466070;28;20311;-81
2022/01/04 21:45:29;;;;;;;3.00;2.90;;;7.40;99.90;;;;;;10463342;28;20201;-81
2022/01/04 21:50:31;;;;;;;2.93;2.83;;;7.40;99.90;;;;;;10460698;28;20221;-81
2022/01/04 21:55:34;;;;;;;2.70;2.60;;;7.30;99.90;;;;;;10465989;28;20197;-82
2022/01/04 22:00:37;;;;;;;2.63;2.53;;;7.20;99.90;;;;;;10450912;28;20597;-80
2022/01/04 22:05:39;;;;;;;2.80;2.70;;;7.20;99.90;;;;;;10478712;28;20257;-81
2022/01/04 22:10:42;;;;;;;3.60;3.40;;;7.20;99.90;;;;;;10491535;28;20216;-82
2022/01/04 22:15:44;;;;;;;3.17;3.07;;;7.10;99.90;;;;;;10493951;28;20287;-80
2022/01/04 22:20:47;;;;;;;3.23;3.13;;;7.10;99.90;;;;;;10451254;28;20216;-81
2022/01/04 22:25:54;;;;;;;2.90;2.80;;;7.10;99.90;;;;;;10462187;28;20253;-80
2022/01/04 22:30:56;;;;;;;2.73;2.63;;;7.20;99.90;;;;;;10477110;28;20600;-81
2022/01/04 22:35:58;;;;;;;2.97;2.87;;;7.10;99.90;;;;;;10490904;28;20231;-82
2022/01/04 22:41:02;;;;;;;3.77;3.57;;;7.10;99.90;;;;;;10470107;28;20274;-81
2022/01/04 22:46:04;;;;;;;3.30;3.10;;;7.10;99.90;;;;;;10468605;28;20193;-80
2022/01/04 22:51:06;;;;;;;3.73;3.43;;;7.00;99.90;;;;;;10472985;28;20234;-80
2022/01/04 22:56:10;;;;;;;3.17;3.00;;;6.90;99.90;;;;;;10455998;28;20201;-80
2022/01/04 23:01:12;;;;;;;3.03;2.83;;;6.90;99.90;;;;;;10455826;28;20228;-80
2022/01/04 23:06:14;;;;;;;3.00;2.90;;;6.90;99.90;;;;;;10483488;28;20200;-80
2022/01/04 23:11:17;;;;;;;3.30;3.10;;;7.10;99.90;;;;;;10477033;28;20247;-81
2022/01/04 23:16:21;;;;;;;2.93;2.73;;;7.10;99.90;;;;;;10493832;28;20196;-81
2022/01/04 23:21:23;;;;;;;3.10;2.80;;;7.30;99.90;;;;;;10473239;28;20212;-82
2022/01/04 23:26:26;;;;;;;2.90;2.80;;;7.50;99.90;;;;;;10480308;28;20212;-82
2022/01/04 23:31:28;;;;;;;2.83;2.73;;;7.60;99.90;;;;;;10479845;28;20228;-81
2022/01/04 23:36:32;;;;;;;2.33;2.23;;;7.70;99.90;;;;;;10476969;28;20211;-81
2022/01/04 23:41:35;;;;;;;2.47;2.37;;;7.70;99.90;;;;;;10498398;28;20636;-82
2022/01/04 23:46:37;;;;;;;2.03;1.93;;;7.70;99.90;;;;;;10493788;28;20719;-81
2022/01/04 23:51:39;;;;;;;2.20;2.10;;;7.70;99.90;;;;;;10483580;28;20307;-82
2022/01/04 23:56:43;;;;;;;2.20;2.10;;;7.80;99.90;;;;;;10463696;28;20272;-81
